sensor_id;sensor_type;location;lat;lon;timestamp;pressure;altitude;pressure_sealevel;temperature;humidity
3844;BME280;1937;51.444;6.484;2023-11-22T00:00:46;69102.47;;;6.18;94.45
3844;BME280;1937;51.444;6.484;2023-11-22T00:03:12;69149.69;;;6.20;94.62
3844;BME280;1937;51.444;6.484;2023-11-22T00:05:39;69141.06;;;6.08;94.86
3844;BME280;1937;51.444;6.484;2023-11-22T00:08:07;69135.00;;;5.96;95.77
3844;BME280;1937;51.444;6.484;2023-11-22T00:10:34;69109.75;;;5.77;96.01
3844;BME280;1937;51.444;6.484;2023-11-22T00:13:01;69140.47;;;5.68;96.00
3844;BME280;1937;51.444;6.484;2023-11-22T00:15:29;69071.53;;;5.60;96.45
3844;BME280;1937;51.444;6.484;2023-11-22T00:17:55;69092.28;;;5.41;96.39
3844;BME280;1937;51.444;6.484;2023-11-22T00:20:23;69119.72;;;5.25;97.28
3844;BME280;1937;51.444;6.484;2023-11-22T00:22:50;69144.72;;;5.16;97.63
3844;BME280;1937;51.444;6.484;2023-11-22T00:25:16;69305.13;;;4.96;99.58
3844;BME280;1937;51.444;6.484;2023-11-22T00:27:44;69685.09;;;5.00;100.00
3844;BME280;1937;51.444;6.484;2023-11-22T00:30:15;69988.47;;;5.15;100.00
3844;BME280;1937;51.444;6.484;2023-11-22T00:32:43;70155.78;;;5.14;100.00
3844;BME280;1937;51.444;6.484;2023-11-22T00:35:10;70034.41;;;4.95;100.00
3844;BME280;1937;51.444;6.484;2023-11-22T00:37:37;70020.56;;;4.92;100.00
3844;BME280;1937;51.444;6.484;2023-11-22T00:40:05;69986.38;;;4.98;100.00
3844;BME280;1937;51.444;6.484;2023-11-22T00:42:36;70098.53;;;5.11;100.00
3844;BME280;1937;51.444;6.484;2023-11-22T00:45:05;70163.91;;;5.16;100.00
3844;BME280;1937;51.444;6.484;2023-11-22T00:47:33;70161.81;;;5.19;100.00
3844;BME280;1937;51.444;6.484;2023-11-22T00:50:02;70286.00;;;5.14;100.00
3844;BME280;1937;51.444;6.484;2023-11-22T00:52:29;70383.13;;;5.01;100.00
3844;BME280;1937;51.444;6.484;2023-11-22T00:54:56;70461.16;;;4.98;100.00
3844;BME280;1937;51.444;6.484;2023-11-22T00:57:23;70307.78;;;4.70;100.00
3844;BME280;1937;51.444;6.484;2023-11-22T00:59:52;70348.00;;;4.70;100.00
3844;BME280;1937;51.444;6.484;2023-11-22T01:02:19;70391.69;;;4.53;100.00
3844;BME280;1937;51.444;6.484;2023-11-22T01:04:45;70376.22;;;4.34;100.00
3844;BME280;1937;51.444;6.484;2023-11-22T01:07:14;70458.44;;;4.34;100.00
3844;BME280;1937;51.444;6.484;2023-11-22T01:09:41;70516.00;;;4.42;100.00
3844;BME280;1937;51.444;6.484;2023-11-22T01:12:08;70371.59;;;4.26;100.00
3844;BME280;1937;51.444;6.484;2023-11-22T01:14:35;70294.56;;;4.02;100.00
3844;BME280;1937;51.444;6.484;2023-11-22T01:17:01;70630.59;;;4.10;100.00
3844;BME280;1937;51.444;6.484;2023-11-22T01:19:28;70731.25;;;3.98;100.00
3844;BME280;1937;51.444;6.484;2023-11-22T01:21:56;70701.97;;;3.97;100.00
3844;BME280;1937;51.444;6.484;2023-11-22T01:24:24;70718.72;;;3.94;100.00
3844;BME280;1937;51.444;6.484;2023-11-22T01:26:53;70745.22;;;3.99;100.00
3844;BME280;1937;51.444;6.484;2023-11-22T01:29:20;70773.34;;;3.97;100.00
3844;BME280;1937;51.444;6.484;2023-11-22T01:31:47;70630.44;;;3.89;100.00
3844;BME280;1937;51.444;6.484;2023-11-22T01:34:14;70629.31;;;3.73;100.00
3844;BME280;1937;51.444;6.484;2023-11-22T01:36:42;70709.50;;;3.49;100.00
3844;BME280;1937;51.444;6.484;2023-11-22T01:39:12;71208.13;;;3.63;100.00
3844;BME280;1937;51.444;6.484;2023-11-22T01:41:44;71242.44;;;3.49;100.00
3844;BME280;1937;51.444;6.484;2023-11-22T01:44:10;71429.94;;;3.59;100.00
3844;BME280;1937;51.444;6.484;2023-11-22T01:46:37;71356.53;;;3.47;100.00
3844;BME280;1937;51.444;6.484;2023-11-22T01:49:05;71477.09;;;3.41;100.00
3844;BME280;1937;51.444;6.484;2023-11-22T01:51:31;71439.25;;;3.31;100.00
3844;BME280;1937;51.444;6.484;2023-11-22T01:53:58;71797.19;;;3.28;100.00
3844;BME280;1937;51.444;6.484;2023-11-22T01:56:27;72072.38;;;3.47;100.00
3844;BME280;1937;51.444;6.484;2023-11-22T01:58:56;71845.88;;;3.39;100.00
3844;BME280;1937;51.444;6.484;2023-11-22T02:01:25;71733.56;;;3.26;100.00
3844;BME280;1937;51.444;6.484;2023-11-22T02:03:52;71812.50;;;3.26;100.00
3844;BME280;1937;51.444;6.484;2023-11-22T02:06:20;71904.31;;;3.22;100.00
3844;BME280;1937;51.444;6.484;2023-11-22T02:08:48;72189.53;;;3.22;100.00
3844;BME280;1937;51.444;6.484;2023-11-22T02:11:17;72492.50;;;3.28;100.00
3844;BME280;1937;51.444;6.484;2023-11-22T02:13:47;72973.81;;;3.38;100.00
3844;BME280;1937;51.444;6.484;2023-11-22T02:16:16;73173.72;;;3.49;100.00
3844;BME280;1937;51.444;6.484;2023-11-22T02:18:43;73046.34;;;3.47;100.00
3844;BME280;1937;51.444;6.484;2023-11-22T02:21:10;72827.94;;;3.40;100.00
3844;BME280;1937;51.444;6.484;2023-11-22T02:23:38;72629.72;;;3.46;100.00
3844;BME280;1937;51.444;6.484;2023-11-22T02:26:05;72267.00;;;3.31;100.00
3844;BME280;1937;51.444;6.484;2023-11-22T02:28:32;72129.88;;;3.15;100.00
3844;BME280;1937;51.444;6.484;2023-11-22T02:30:59;72117.50;;;3.01;100.00
3844;BME280;1937;51.444;6.484;2023-11-22T02:33:26;72257.38;;;3.07;100.00
3844;BME280;1937;51.444;6.484;2023-11-22T02:35:52;72254.22;;;3.06;100.00
3844;BME280;1937;51.444;6.484;2023-11-22T02:38:20;72229.16;;;3.17;100.00
3844;BME280;1937;51.444;6.484;2023-11-22T02:40:49;71843.50;;;2.91;100.00
3844;BME280;1937;51.444;6.484;2023-11-22T02:43:16;71988.97;;;3.00;100.00
3844;BME280;1937;51.444;6.484;2023-11-22T02:45:43;71837.09;;;2.92;100.00
3844;BME280;1937;51.444;6.484;2023-11-22T02:48:12;71962.78;;;3.03;100.00
3844;BME280;1937;51.444;6.484;2023-11-22T02:50:39;71645.94;;;2.81;100.00
3844;BME280;1937;51.444;6.484;2023-11-22T02:53:09;71881.53;;;2.95;100.00
3844;BME280;1937;51.444;6.484;2023-11-22T02:55:36;71940.84;;;2.92;100.00
3844;BME280;1937;51.444;6.484;2023-11-22T02:58:06;72150.69;;;2.97;100.00
3844;BME280;1937;51.444;6.484;2023-11-22T03:00:33;72157.03;;;2.98;100.00
3844;BME280;1937;51.444;6.484;2023-11-22T03:03:00;72093.09;;;2.85;100.00
3844;BME280;1937;51.444;6.484;2023-11-22T03:05:29;72130.00;;;2.84;100.00
3844;BME280;1937;51.444;6.484;2023-11-22T03:07:55;72168.09;;;2.88;100.00
3844;BME280;1937;51.444;6.484;2023-11-22T03:10:23;72179.00;;;2.84;100.00
3844;BME280;1937;51.444;6.484;2023-11-22T03:12:50;72179.72;;;2.81;100.00
3844;BME280;1937;51.444;6.484;2023-11-22T03:15:18;72262.59;;;2.74;100.00
3844;BME280;1937;51.444;6.484;2023-11-22T03:17:45;72584.97;;;2.83;100.00
3844;BME280;1937;51.444;6.484;2023-11-22T03:20:14;72654.34;;;2.84;100.00
3844;BME280;1937;51.444;6.484;2023-11-22T03:22:41;72933.59;;;2.96;100.00
3844;BME280;1937;51.444;6.484;2023-11-22T03:25:10;72869.25;;;2.99;100.00
3844;BME280;1937;51.444;6.484;2023-11-22T03:27:37;72758.00;;;2.89;100.00
3844;BME280;1937;51.444;6.484;2023-11-22T03:30:05;72599.72;;;2.77;100.00
3844;BME280;1937;51.444;6.484;2023-11-22T03:32:37;72514.72;;;2.64;100.00
3844;BME280;1937;51.444;6.484;2023-11-22T03:35:05;72714.84;;;2.81;100.00
3844;BME280;1937;51.444;6.484;2023-11-22T03:37:32;72555.13;;;2.82;100.00
3844;BME280;1937;51.444;6.484;2023-11-22T03:39:59;72194.75;;;2.64;100.00
3844;BME280;1937;51.444;6.484;2023-11-22T03:42:25;72095.72;;;2.56;100.00
3844;BME280;1937;51.444;6.484;2023-11-22T03:44:55;72199.84;;;2.64;100.00
3844;BME280;1937;51.444;6.484;2023-11-22T03:47:24;72127.75;;;2.47;100.00
3844;BME280;1937;51.444;6.484;2023-11-22T03:49:52;71751.59;;;2.37;100.00
3844;BME280;1937;51.444;6.484;2023-11-22T03:52:19;71645.75;;;2.27;100.00
3844;BME280;1937;51.444;6.484;2023-11-22T03:54:45;71623.53;;;2.26;100.00
3844;BME280;1937;51.444;6.484;2023-11-22T03:57:12;71758.59;;;2.36;100.00
3844;BME280;1937;51.444;6.484;2023-11-22T03:59:40;71717.38;;;2.34;100.00
3844;BME280;1937;51.444;6.484;2023-11-22T04:02:07;71877.78;;;2.48;100.00
3844;BME280;1937;51.444;6.484;2023-11-22T04:04:34;72029.47;;;2.60;100.00
3844;BME280;1937;51.444;6.484;2023-11-22T04:07:03;72030.88;;;2.55;100.00
3844;BME280;1937;51.444;6.484;2023-11-22T04:09:30;71950.91;;;2.48;100.00
3844;BME280;1937;51.444;6.484;2023-11-22T04:11:57;72129.94;;;2.61;100.00
3844;BME280;1937;51.444;6.484;2023-11-22T04:14:24;71865.81;;;2.45;100.00
3844;BME280;1937;51.444;6.484;2023-11-22T04:16:53;71735.78;;;2.34;100.00
3844;BME280;1937;51.444;6.484;2023-11-22T04:19:19;71891.91;;;2.43;100.00
3844;BME280;1937;51.444;6.484;2023-11-22T04:21:46;72068.34;;;2.57;100.00
3844;BME280;1937;51.444;6.484;2023-11-22T04:24:14;72122.88;;;2.64;100.00
3844;BME280;1937;51.444;6.484;2023-11-22T04:26:42;71827.00;;;2.46;100.00
3844;BME280;1937;51.444;6.484;2023-11-22T04:29:09;71841.50;;;2.50;100.00
3844;BME280;1937;51.444;6.484;2023-11-22T04:31:36;71892.19;;;2.56;100.00
3844;BME280;1937;51.444;6.484;2023-11-22T04:34:03;71953.66;;;2.65;100.00
3844;BME280;1937;51.444;6.484;2023-11-22T04:36:29;71859.81;;;2.55;100.00
3844;BME280;1937;51.444;6.484;2023-11-22T04:38:56;71812.09;;;2.55;100.00
3844;BME280;1937;51.444;6.484;2023-11-22T04:41:24;71716.38;;;2.45;100.00
3844;BME280;1937;51.444;6.484;2023-11-22T04:43:51;71660.50;;;2.43;100.00
3844;BME280;1937;51.444;6.484;2023-11-22T04:46:18;71716.25;;;2.50;100.00
3844;BME280;1937;51.444;6.484;2023-11-22T04:48:45;71452.09;;;2.39;100.00
3844;BME280;1937;51.444;6.484;2023-11-22T04:51:16;71397.63;;;2.34;100.00
3844;BME280;1937;51.444;6.484;2023-11-22T04:53:44;71258.84;;;2.23;100.00
3844;BME280;1937;51.444;6.484;2023-11-22T04:56:10;71157.72;;;2.09;100.00
3844;BME280;1937;51.444;6.484;2023-11-22T04:58:39;71521.09;;;2.29;100.00
3844;BME280;1937;51.444;6.484;2023-11-22T05:01:06;71097.97;;;2.10;100.00
3844;BME280;1937;51.444;6.484;2023-11-22T05:03:35;71145.47;;;2.13;100.00
3844;BME280;1937;51.444;6.484;2023-11-22T05:06:03;71134.22;;;2.08;100.00
3844;BME280;1937;51.444;6.484;2023-11-22T05:08:32;71161.56;;;2.08;100.00
3844;BME280;1937;51.444;6.484;2023-11-22T05:10:59;70950.53;;;1.95;100.00
3844;BME280;1937;51.444;6.484;2023-11-22T05:13:30;70877.03;;;1.91;100.00
3844;BME280;1937;51.444;6.484;2023-11-22T05:15:58;70799.00;;;1.89;100.00
3844;BME280;1937;51.444;6.484;2023-11-22T05:18:26;70687.59;;;1.81;100.00
3844;BME280;1937;51.444;6.484;2023-11-22T05:20:52;70771.50;;;1.94;100.00
3844;BME280;1937;51.444;6.484;2023-11-22T05:23:19;70812.84;;;1.92;100.00
3844;BME280;1937;51.444;6.484;2023-11-22T05:25:47;70706.84;;;1.91;100.00
3844;BME280;1937;51.444;6.484;2023-11-22T05:28:14;70790.94;;;1.99;100.00
3844;BME280;1937;51.444;6.484;2023-11-22T05:30:40;70853.41;;;2.09;100.00
3844;BME280;1937;51.444;6.484;2023-11-22T05:33:08;70764.66;;;2.05;100.00
3844;BME280;1937;51.444;6.484;2023-11-22T05:35:35;70964.16;;;2.19;100.00
3844;BME280;1937;51.444;6.484;2023-11-22T05:38:01;71016.41;;;2.30;100.00
3844;BME280;1937;51.444;6.484;2023-11-22T05:40:28;70966.13;;;2.33;100.00
3844;BME280;1937;51.444;6.484;2023-11-22T05:42:55;70640.75;;;2.05;100.00
3844;BME280;1937;51.444;6.484;2023-11-22T05:45:22;70562.19;;;2.01;100.00
3844;BME280;1937;51.444;6.484;2023-11-22T05:47:49;70408.03;;;1.85;100.00
3844;BME280;1937;51.444;6.484;2023-11-22T05:50:17;70425.81;;;1.85;100.00
3844;BME280;1937;51.444;6.484;2023-11-22T05:52:44;70296.53;;;1.69;100.00
3844;BME280;1937;51.444;6.484;2023-11-22T05:55:11;70267.38;;;1.68;100.00
3844;BME280;1937;51.444;6.484;2023-11-22T05:57:39;70257.22;;;1.68;100.00
3844;BME280;1937;51.444;6.484;2023-11-22T06:00:07;70231.00;;;1.71;100.00
3844;BME280;1937;51.444;6.484;2023-11-22T06:02:33;70148.31;;;1.74;100.00
3844;BME280;1937;51.444;6.484;2023-11-22T06:05:00;69916.75;;;1.50;100.00
3844;BME280;1937;51.444;6.484;2023-11-22T06:07:28;69856.41;;;1.40;100.00
3844;BME280;1937;51.444;6.484;2023-11-22T06:09:54;69839.88;;;1.41;100.00
3844;BME280;1937;51.444;6.484;2023-11-22T06:12:22;69762.91;;;1.34;100.00
3844;BME280;1937;51.444;6.484;2023-11-22T06:14:49;69627.34;;;1.20;100.00
3844;BME280;1937;51.444;6.484;2023-11-22T06:17:15;69571.59;;;1.10;100.00
3844;BME280;1937;51.444;6.484;2023-11-22T06:19:42;69617.69;;;1.12;100.00
3844;BME280;1937;51.444;6.484;2023-11-22T06:22:08;69527.16;;;1.11;100.00
3844;BME280;1937;51.444;6.484;2023-11-22T06:24:36;69496.50;;;1.04;100.00
3844;BME280;1937;51.444;6.484;2023-11-22T06:27:03;69436.34;;;1.03;100.00
3844;BME280;1937;51.444;6.484;2023-11-22T06:29:30;69455.31;;;1.04;100.00
3844;BME280;1937;51.444;6.484;2023-11-22T06:31:57;69495.63;;;1.08;100.00
3844;BME280;1937;51.444;6.484;2023-11-22T06:34:24;69405.72;;;0.96;100.00
3844;BME280;1937;51.444;6.484;2023-11-22T06:36:50;69359.41;;;0.87;100.00
3844;BME280;1937;51.444;6.484;2023-11-22T06:39:16;69237.94;;;0.74;100.00
3844;BME280;1937;51.444;6.484;2023-11-22T06:41:45;69226.72;;;0.71;100.00
3844;BME280;1937;51.444;6.484;2023-11-22T06:44:12;69213.00;;;0.68;100.00
3844;BME280;1937;51.444;6.484;2023-11-22T06:46:39;69112.03;;;0.62;100.00
3844;BME280;1937;51.444;6.484;2023-11-22T06:49:06;69092.38;;;0.63;100.00
3844;BME280;1937;51.444;6.484;2023-11-22T06:51:34;69025.00;;;0.57;100.00
3844;BME280;1937;51.444;6.484;2023-11-22T06:54:01;69000.81;;;0.50;100.00
3844;BME280;1937;51.444;6.484;2023-11-22T06:56:27;69000.31;;;0.38;100.00
3844;BME280;1937;51.444;6.484;2023-11-22T06:58:55;69026.25;;;0.39;100.00
3844;BME280;1937;51.444;6.484;2023-11-22T07:01:23;69004.69;;;0.21;100.00
3844;BME280;1937;51.444;6.484;2023-11-22T07:03:51;69071.06;;;0.13;100.00
3844;BME280;1937;51.444;6.484;2023-11-22T07:06:17;69141.91;;;0.23;100.00
3844;BME280;1937;51.444;6.484;2023-11-22T07:08:44;69268.06;;;0.40;100.00
3844;BME280;1937;51.444;6.484;2023-11-22T07:11:11;69298.78;;;0.45;100.00
3844;BME280;1937;51.444;6.484;2023-11-22T07:13:37;69379.09;;;0.57;100.00
3844;BME280;1937;51.444;6.484;2023-11-22T07:16:06;69358.22;;;0.56;100.00
3844;BME280;1937;51.444;6.484;2023-11-22T07:18:33;69432.50;;;0.63;100.00
3844;BME280;1937;51.444;6.484;2023-11-22T07:21:00;69479.06;;;0.68;100.00
3844;BME280;1937;51.444;6.484;2023-11-22T07:23:26;69622.44;;;0.87;100.00
3844;BME280;1937;51.444;6.484;2023-11-22T07:25:54;69781.22;;;1.03;100.00
3844;BME280;1937;51.444;6.484;2023-11-22T07:28:21;69811.16;;;1.00;100.00
3844;BME280;1937;51.444;6.484;2023-11-22T07:30:48;69713.72;;;0.87;100.00
3844;BME280;1937;51.444;6.484;2023-11-22T07:33:16;69787.22;;;0.87;100.00
3844;BME280;1937;51.444;6.484;2023-11-22T07:35:43;69899.31;;;1.00;100.00
3844;BME280;1937;51.444;6.484;2023-11-22T07:38:11;70095.41;;;1.19;100.00
3844;BME280;1937;51.444;6.484;2023-11-22T07:40:38;70235.22;;;1.39;100.00
3844;BME280;1937;51.444;6.484;2023-11-22T07:43:04;70254.50;;;1.46;100.00
3844;BME280;1937;51.444;6.484;2023-11-22T07:45:32;70307.38;;;1.54;100.00
3844;BME280;1937;51.444;6.484;2023-11-22T07:47:59;70403.78;;;1.69;100.00
3844;BME280;1937;51.444;6.484;2023-11-22T07:50:27;70452.94;;;1.76;100.00
3844;BME280;1937;51.444;6.484;2023-11-22T07:52:55;70606.06;;;1.87;100.00
3844;BME280;1937;51.444;6.484;2023-11-22T07:55:22;70717.16;;;2.01;100.00
3844;BME280;1937;51.444;6.484;2023-11-22T07:57:49;71416.69;;;2.52;100.00
3844;BME280;1937;51.444;6.484;2023-11-22T08:00:17;74948.88;;;3.96;100.00
3844;BME280;1937;51.444;6.484;2023-11-22T08:02:44;78926.88;;;5.29;100.00
3844;BME280;1937;51.444;6.484;2023-11-22T08:05:11;76129.69;;;6.12;100.00
3844;BME280;1937;51.444;6.484;2023-11-22T08:07:42;73155.41;;;7.20;95.81
3844;BME280;1937;51.444;6.484;2023-11-22T08:10:11;70547.91;;;7.45;90.30
3844;BME280;1937;51.444;6.484;2023-11-22T08:12:44;69661.66;;;7.79;88.36
3844;BME280;1937;51.444;6.484;2023-11-22T08:15:11;69311.06;;;8.47;87.62
3844;BME280;1937;51.444;6.484;2023-11-22T08:17:38;68478.84;;;8.49;80.65
3844;BME280;1937;51.444;6.484;2023-11-22T08:20:06;68166.03;;;8.16;82.14
3844;BME280;1937;51.444;6.484;2023-11-22T08:22:37;68072.44;;;8.04;79.38
3844;BME280;1937;51.444;6.484;2023-11-22T08:25:07;67773.38;;;7.31;79.99
3844;BME280;1937;51.444;6.484;2023-11-22T08:27:34;67718.28;;;6.90;82.51
3844;BME280;1937;51.444;6.484;2023-11-22T08:30:00;67807.47;;;6.88;83.62
3844;BME280;1937;51.444;6.484;2023-11-22T08:32:30;67896.88;;;7.08;83.43
3844;BME280;1937;51.444;6.484;2023-11-22T08:34:57;67924.81;;;7.58;81.28
3844;BME280;1937;51.444;6.484;2023-11-22T08:37:24;67957.22;;;8.50;78.54
3844;BME280;1937;51.444;6.484;2023-11-22T08:39:50;67970.47;;;9.17;76.51
3844;BME280;1937;51.444;6.484;2023-11-22T08:42:18;67923.06;;;9.45;75.58
3844;BME280;1937;51.444;6.484;2023-11-22T08:44:45;67969.16;;;9.98;75.72
3844;BME280;1937;51.444;6.484;2023-11-22T08:47:12;67927.53;;;10.53;72.54
3844;BME280;1937;51.444;6.484;2023-11-22T08:49:38;67867.06;;;10.59;70.86
3844;BME280;1937;51.444;6.484;2023-11-22T08:52:07;67723.66;;;10.19;70.73
3844;BME280;1937;51.444;6.484;2023-11-22T08:54:33;67688.25;;;9.98;71.77
3844;BME280;1937;51.444;6.484;2023-11-22T08:57:00;67636.53;;;9.73;72.04
3844;BME280;1937;51.444;6.484;2023-11-22T08:59:28;67486.41;;;9.00;72.42
3844;BME280;1937;51.444;6.484;2023-11-22T09:01:54;67381.59;;;8.20;74.07
3844;BME280;1937;51.444;6.484;2023-11-22T09:04:21;67416.13;;;7.88;77.19
3844;BME280;1937;51.444;6.484;2023-11-22T09:06:49;67592.72;;;8.63;76.69
3844;BME280;1937;51.444;6.484;2023-11-22T09:09:16;67616.72;;;8.55;76.82
3844;BME280;1937;51.444;6.484;2023-11-22T09:11:42;67547.81;;;8.69;75.84
3844;BME280;1937;51.444;6.484;2023-11-22T09:14:09;67489.03;;;8.22;75.58
3844;BME280;1937;51.444;6.484;2023-11-22T09:16:38;67412.28;;;7.71;76.79
3844;BME280;1937;51.444;6.484;2023-11-22T09:19:05;67414.72;;;7.56;77.91
3844;BME280;1937;51.444;6.484;2023-11-22T09:21:33;67487.06;;;8.01;76.21
3844;BME280;1937;51.444;6.484;2023-11-22T09:24:00;67353.84;;;7.23;78.89
3844;BME280;1937;51.444;6.484;2023-11-22T09:26:27;67408.50;;;7.15;79.57
3844;BME280;1937;51.444;6.484;2023-11-22T09:28:54;67484.91;;;7.41;79.48
3844;BME280;1937;51.444;6.484;2023-11-22T09:31:20;67418.16;;;7.14;78.62
3844;BME280;1937;51.444;6.484;2023-11-22T09:33:48;67394.88;;;7.05;77.72
3844;BME280;1937;51.444;6.484;2023-11-22T09:36:15;67377.19;;;6.92;78.54
3844;BME280;1937;51.444;6.484;2023-11-22T09:38:43;67408.97;;;7.22;78.32
3844;BME280;1937;51.444;6.484;2023-11-22T09:41:10;67369.84;;;6.83;79.44
3844;BME280;1937;51.444;6.484;2023-11-22T09:43:37;67318.59;;;6.28;79.46
3844;BME280;1937;51.444;6.484;2023-11-22T09:46:05;67338.16;;;6.36;80.32
3844;BME280;1937;51.444;6.484;2023-11-22T09:48:34;67404.72;;;6.80;79.50
3844;BME280;1937;51.444;6.484;2023-11-22T09:51:04;67516.56;;;7.55;76.81
3844;BME280;1937;51.444;6.484;2023-11-22T09:53:33;67471.31;;;7.76;76.42
3844;BME280;1937;51.444;6.484;2023-11-22T09:56:02;67416.34;;;7.64;75.83
3844;BME280;1937;51.444;6.484;2023-11-22T09:58:30;67437.31;;;7.71;76.89
3844;BME280;1937;51.444;6.484;2023-11-22T10:00:57;67523.91;;;8.37;74.08
3844;BME280;1937;51.444;6.484;2023-11-22T10:03:25;67521.00;;;8.57;73.84
3844;BME280;1937;51.444;6.484;2023-11-22T10:05:54;67511.97;;;8.85;72.25
3844;BME280;1937;51.444;6.484;2023-11-22T10:08:23;67447.72;;;8.80;71.18
3844;BME280;1937;51.444;6.484;2023-11-22T10:10:50;67386.75;;;8.96;69.54
3844;BME280;1937;51.444;6.484;2023-11-22T10:13:19;67449.56;;;9.24;69.67
3844;BME280;1937;51.444;6.484;2023-11-22T10:15:47;67485.97;;;9.31;70.05
3844;BME280;1937;51.444;6.484;2023-11-22T10:18:14;67448.38;;;9.34;69.54
3844;BME280;1937;51.444;6.484;2023-11-22T10:20:43;67510.31;;;9.86;67.63
3844;BME280;1937;51.444;6.484;2023-11-22T10:23:12;67476.78;;;10.08;64.97
3844;BME280;1937;51.444;6.484;2023-11-22T10:25:44;67318.69;;;9.29;66.24
3844;BME280;1937;51.444;6.484;2023-11-22T10:28:13;67428.78;;;9.96;65.35
3844;BME280;1937;51.444;6.484;2023-11-22T10:30:39;67448.97;;;10.04;66.07
3844;BME280;1937;51.444;6.484;2023-11-22T10:33:09;67350.41;;;9.59;66.41
3844;BME280;1937;51.444;6.484;2023-11-22T10:35:38;67257.16;;;8.91;66.27
3844;BME280;1937;51.444;6.484;2023-11-22T10:38:07;67160.19;;;7.91;67.61
3844;BME280;1937;51.444;6.484;2023-11-22T10:40:35;67217.91;;;8.39;67.61
3844;BME280;1937;51.444;6.484;2023-11-22T10:43:04;67234.75;;;8.53;67.63
3844;BME280;1937;51.444;6.484;2023-11-22T10:45:32;67203.28;;;8.48;67.95
3844;BME280;1937;51.444;6.484;2023-11-22T10:48:00;67237.00;;;8.67;67.21
3844;BME280;1937;51.444;6.484;2023-11-22T10:50:27;67247.94;;;8.72;66.04
3844;BME280;1937;51.444;6.484;2023-11-22T10:52:56;67113.78;;;8.04;67.52
3844;BME280;1937;51.444;6.484;2023-11-22T10:55:27;67260.28;;;8.49;67.17
3844;BME280;1937;51.444;6.484;2023-11-22T10:57:56;67295.75;;;8.95;68.02
3844;BME280;1937;51.444;6.484;2023-11-22T11:00:26;67408.13;;;9.75;67.72
3844;BME280;1937;51.444;6.484;2023-11-22T11:02:58;67381.41;;;9.68;65.67
3844;BME280;1937;51.444;6.484;2023-11-22T11:05:28;67385.56;;;9.76;64.86
3844;BME280;1937;51.444;6.484;2023-11-22T11:08:00;67442.91;;;10.28;63.13
3844;BME280;1937;51.444;6.484;2023-11-22T11:10:28;67467.75;;;10.56;63.28
3844;BME280;1937;51.444;6.484;2023-11-22T11:12:55;67263.09;;;9.32;63.75
3844;BME280;1937;51.444;6.484;2023-11-22T11:15:23;67278.09;;;9.40;64.13
3844;BME280;1937;51.444;6.484;2023-11-22T11:17:51;67403.47;;;10.30;63.82
3844;BME280;1937;51.444;6.484;2023-11-22T11:20:19;67404.72;;;10.19;62.78
3844;BME280;1937;51.444;6.484;2023-11-22T11:22:49;67408.78;;;10.39;61.13
3844;BME280;1937;51.444;6.484;2023-11-22T11:25:17;67357.84;;;10.35;60.60
3844;BME280;1937;51.444;6.484;2023-11-22T11:27:45;67336.16;;;10.07;59.45
3844;BME280;1937;51.444;6.484;2023-11-22T11:30:48;66889.88;;;7.02;65.64
3844;BME280;1937;51.444;6.484;2023-11-22T11:33:18;66968.66;;;7.33;65.92
3844;BME280;1937;51.444;6.484;2023-11-22T11:35:47;66987.25;;;6.95;67.38
3844;BME280;1937;51.444;6.484;2023-11-22T11:38:14;67079.19;;;7.82;66.89
3844;BME280;1937;51.444;6.484;2023-11-22T11:40:42;67126.16;;;8.39;66.47
3844;BME280;1937;51.444;6.484;2023-11-22T11:43:10;67112.72;;;8.23;65.26
3844;BME280;1937;51.444;6.484;2023-11-22T11:45:38;67252.22;;;9.00;65.31
3844;BME280;1937;51.444;6.484;2023-11-22T11:48:12;67334.66;;;9.72;63.46
3844;BME280;1937;51.444;6.484;2023-11-22T11:50:40;67362.53;;;9.96;63.62
3844;BME280;1937;51.444;6.484;2023-11-22T11:53:07;67341.31;;;10.07;62.44
3844;BME280;1937;51.444;6.484;2023-11-22T11:55:33;67325.97;;;10.11;61.34
3844;BME280;1937;51.444;6.484;2023-11-22T11:58:04;67346.34;;;10.02;61.90
3844;BME280;1937;51.444;6.484;2023-11-22T12:00:33;67296.25;;;9.97;62.64
3844;BME280;1937;51.444;6.484;2023-11-22T12:02:59;67274.63;;;9.69;62.52
3844;BME280;1937;51.444;6.484;2023-11-22T12:05:26;67235.25;;;9.23;62.63
3844;BME280;1937;51.444;6.484;2023-11-22T12:07:54;67157.22;;;8.84;63.86
3844;BME280;1937;51.444;6.484;2023-11-22T12:10:21;67155.22;;;8.69;64.92
3844;BME280;1937;51.444;6.484;2023-11-22T12:12:49;67070.34;;;7.97;61.83
3844;BME280;1937;51.444;6.484;2023-11-22T12:15:17;67031.75;;;8.19;62.70
3844;BME280;1937;51.444;6.484;2023-11-22T12:17:44;67026.22;;;8.12;62.01
3844;BME280;1937;51.444;6.484;2023-11-22T12:20:12;67035.31;;;8.11;62.20
3844;BME280;1937;51.444;6.484;2023-11-22T12:22:39;67061.69;;;8.21;62.30
3844;BME280;1937;51.444;6.484;2023-11-22T12:25:10;67047.78;;;8.09;63.32
3844;BME280;1937;51.444;6.484;2023-11-22T12:27:40;67071.78;;;8.12;63.34
3844;BME280;1937;51.444;6.484;2023-11-22T12:30:08;67057.50;;;8.24;63.37
3844;BME280;1937;51.444;6.484;2023-11-22T12:32:38;67050.38;;;8.09;63.90
3844;BME280;1937;51.444;6.484;2023-11-22T12:35:06;67005.47;;;7.83;64.44
3844;BME280;1937;51.444;6.484;2023-11-22T12:37:34;67091.94;;;8.09;63.66
3844;BME280;1937;51.444;6.484;2023-11-22T12:40:10;66972.38;;;7.50;63.45
3844;BME280;1937;51.444;6.484;2023-11-22T12:42:47;66941.97;;;7.36;60.81
3844;BME280;1937;51.444;6.484;2023-11-22T12:45:20;66909.88;;;7.37;60.79
3844;BME280;1937;51.444;6.484;2023-11-22T12:47:49;67004.91;;;7.82;60.82
3844;BME280;1937;51.444;6.484;2023-11-22T12:50:32;67059.13;;;8.21;57.82
3844;BME280;1937;51.444;6.484;2023-11-22T12:53:07;67026.16;;;8.23;59.43
3844;BME280;1937;51.444;6.484;2023-11-22T12:55:36;66977.09;;;8.21;57.66
3844;BME280;1937;51.444;6.484;2023-11-22T12:58:02;67003.25;;;8.33;57.36
3844;BME280;1937;51.444;6.484;2023-11-22T13:00:29;66994.53;;;8.25;57.52
3844;BME280;1937;51.444;6.484;2023-11-22T13:02:56;66951.66;;;7.99;57.59
3844;BME280;1937;51.444;6.484;2023-11-22T13:05:23;66973.31;;;8.00;58.13
3844;BME280;1937;51.444;6.484;2023-11-22T13:07:49;66973.16;;;8.06;58.39
3844;BME280;1937;51.444;6.484;2023-11-22T13:10:16;66997.81;;;8.30;57.64
3844;BME280;1937;51.444;6.484;2023-11-22T13:12:44;66970.16;;;8.15;57.55
3844;BME280;1937;51.444;6.484;2023-11-22T13:15:11;66980.25;;;8.37;56.53
3844;BME280;1937;51.444;6.484;2023-11-22T13:17:38;67021.47;;;8.67;55.54
3844;BME280;1937;51.444;6.484;2023-11-22T13:20:06;67028.94;;;8.69;55.75
3844;BME280;1937;51.444;6.484;2023-11-22T13:22:39;67059.94;;;8.98;56.81
3844;BME280;1937;51.444;6.484;2023-11-22T13:25:06;67113.34;;;9.18;58.36
3844;BME280;1937;51.444;6.484;2023-11-22T13:27:32;67188.03;;;9.47;59.80
3844;BME280;1937;51.444;6.484;2023-11-22T13:30:03;67192.41;;;9.53;58.74